地図

経路データ

SID SEASON NUMBER BASIN SUBBASIN NAME ISO_TIME NATURE LAT LON WMO_WIND WMO_PRES WMO_AGENCY TRACK_TYPE DIST2LAND LANDFALL IFLAG USA_AGENCY USA_ATCF_ID USA_LAT USA_LON USA_RECORD USA_STATUS USA_WIND USA_PRES USA_SSHS USA_R34_NE USA_R34_SE USA_R34_SW USA_R34_NW USA_R50_NE USA_R50_SE USA_R50_SW USA_R50_NW USA_R64_NE USA_R64_SE USA_R64_SW USA_R64_NW USA_POCI USA_ROCI USA_RMW USA_EYE TOKYO_LAT TOKYO_LON TOKYO_GRADE TOKYO_WIND TOKYO_PRES TOKYO_R50_DIR TOKYO_R50_LONG TOKYO_R50_SHORT TOKYO_R30_DIR TOKYO_R30_LONG TOKYO_R30_SHORT TOKYO_LAND CMA_LAT CMA_LON CMA_CAT CMA_WIND CMA_PRES HKO_LAT HKO_LON HKO_CAT HKO_WIND HKO_PRES NEWDELHI_LAT NEWDELHI_LON NEWDELHI_GRADE NEWDELHI_WIND NEWDELHI_PRES NEWDELHI_CI NEWDELHI_DP NEWDELHI_POCI REUNION_LAT REUNION_LON REUNION_TYPE REUNION_WIND REUNION_PRES REUNION_TNUM REUNION_CI REUNION_RMW REUNION_R34_NE REUNION_R34_SE REUNION_R34_SW REUNION_R34_NW REUNION_R50_NE REUNION_R50_SE REUNION_R50_SW REUNION_R50_NW REUNION_R64_NE REUNION_R64_SE REUNION_R64_SW REUNION_R64_NW BOM_LAT BOM_LON BOM_TYPE BOM_WIND BOM_PRES BOM_TNUM BOM_CI BOM_RMW BOM_R34_NE BOM_R34_SE BOM_R34_SW BOM_R34_NW BOM_R50_NE BOM_R50_SE BOM_R50_SW BOM_R50_NW BOM_R64_NE BOM_R64_SE BOM_R64_SW BOM_R64_NW BOM_ROCI BOM_POCI BOM_EYE BOM_POS_METHOD BOM_PRES_METHOD NADI_LAT NADI_LON NADI_CAT NADI_WIND NADI_PRES WELLINGTON_LAT WELLINGTON_LON WELLINGTON_WIND WELLINGTON_PRES DS824_LAT DS824_LON DS824_STAGE DS824_WIND DS824_PRES TD9636_LAT TD9636_LON TD9636_STAGE TD9636_WIND TD9636_PRES TD9635_LAT TD9635_LON TD9635_WIND TD9635_PRES TD9635_ROCI NEUMANN_LAT NEUMANN_LON NEUMANN_CLASS NEUMANN_WIND NEUMANN_PRES MLC_LAT MLC_LON MLC_CLASS MLC_WIND MLC_PRES USA_GUST BOM_GUST BOM_GUST_PER REUNION_GUST REUNION_GUST_PER USA_SEAHGT USA_SEARAD_NE USA_SEARAD_SE USA_SEARAD_SW USA_SEARAD_NW STORM_SPEED STORM_DIR
1993241N14264 1993 62 EP MM JOVA 1993-08-29 00:00:00 TS 13.5000 -96.4000 30 1010 hurdat_epa main 236 224 O_____________ hurdat_epa EP111993 13.5000 -96.4000 TD 30 1010 -1 9 279
1993241N14264 1993 62 EP MM JOVA 1993-08-29 03:00:00 TS 13.5750 -96.8676 main 226 222 P_____________ EP111993 13.5750 -96.8676 TD 30 1009 -1 10 282
1993241N14264 1993 62 EP MM JOVA 1993-08-29 06:00:00 TS 13.7000 -97.4000 30 1009 hurdat_epa main 229 228 O_____________ hurdat_epa EP111993 13.7000 -97.4000 TD 30 1009 -1 12 286
1993241N14264 1993 62 EP MM JOVA 1993-08-29 09:00:00 TS 13.9001 -98.0348 main 236 225 P_____________ EP111993 13.9001 -98.0348 TD 30 1008 -1 13 288
1993241N14264 1993 62 EP MM JOVA 1993-08-29 12:00:00 TS 14.1000 -98.7000 30 1008 hurdat_epa main 233 233 O_____________ hurdat_epa EP111993 14.1000 -98.7000 TD 30 1008 -1 13 284
1993241N14264 1993 62 EP MM JOVA 1993-08-29 15:00:00 TS 14.2075 -99.3377 main 246 246 P_____________ EP111993 14.2075 -99.3377 TD 32 1007 -1 12 280
1993241N14264 1993 62 EP MM JOVA 1993-08-29 18:00:00 TS 14.3000 -99.9000 35 1007 hurdat_epa main 263 260 O_____________ hurdat_epa EP111993 14.3000 -99.9000 TS 35 1007 0 10 283
1993241N14264 1993 62 EP MM JOVA 1993-08-29 21:00:00 TS 14.4423 -100.353 main 268 254 P_____________ EP111993 14.4423 -100.353 TS 37 1006 0 8 291
1993241N14264 1993 62 EP MM JOVA 1993-08-30 00:00:00 TS 14.6000 -100.700 40 1005 hurdat_epa main 258 252 O_____________ hurdat_epa EP111993 14.6000 -100.700 TS 40 1005 0 7 297
1993241N14264 1993 62 EP MM JOVA 1993-08-30 03:00:00 TS 14.7424 -100.965 main 263 251 P_____________ EP111993 14.7424 -100.965 TS 42 1003 0 6 302
1993241N14264 1993 62 EP MM JOVA 1993-08-30 06:00:00 TS 14.9000 -101.200 45 1002 hurdat_epa main 257 243 O_____________ hurdat_epa EP111993 14.9000 -101.200 TS 45 1002 0 6 305
1993241N14264 1993 62 EP MM JOVA 1993-08-30 09:00:00 TS 15.1000 -101.500 main 246 232 P_____________ EP111993 15.1000 -101.500 TS 47 1000 0 7 305
1993241N14264 1993 62 EP MM JOVA 1993-08-30 12:00:00 TS 15.3000 -101.800 50 998 hurdat_epa main 235 223 O_____________ hurdat_epa EP111993 15.3000 -101.800 TS 50 998 0 7 304
1993241N14264 1993 62 EP MM JOVA 1993-08-30 15:00:00 TS 15.4649 -102.058 main 227 223 P_____________ EP111993 15.4649 -102.058 TS 52 996 0 6 302
1993241N14264 1993 62 EP MM JOVA 1993-08-30 18:00:00 TS 15.6000 -102.300 55 994 hurdat_epa main 229 226 O_____________ hurdat_epa EP111993 15.6000 -102.300 TS 55 994 0 5 296
1993241N14264 1993 62 EP MM JOVA 1993-08-30 21:00:00 TS 15.6924 -102.543 main 233 233 P_____________ EP111993 15.6924 -102.543 TS 57 991 0 5 293
1993241N14264 1993 62 EP MM JOVA 1993-08-31 00:00:00 TS 15.8000 -102.800 60 989 hurdat_epa main 240 225 O_____________ hurdat_epa EP111993 15.8000 -102.800 TS 60 989 0 6 299
1993241N14264 1993 62 EP MM JOVA 1993-08-31 03:00:00 TS 15.9925 -103.100 main 229 214 P_____________ EP111993 15.9925 -103.100 TS 62 987 0 7 305
1993241N14264 1993 62 EP MM JOVA 1993-08-31 06:00:00 TS 16.2000 -103.400 65 985 hurdat_epa main 218 211 O_____________ hurdat_epa EP111993 16.2000 -103.400 HU 65 985 1 6 304
1993241N14264 1993 62 EP MM JOVA 1993-08-31 09:00:00 TS 16.3499 -103.650 main 218 200 P_____________ EP111993 16.3499 -103.650 HU 67 982 1 6 302
1993241N14264 1993 62 EP MM JOVA 1993-08-31 12:00:00 TS 16.5000 -103.900 70 980 hurdat_epa main 204 190 O_____________ hurdat_epa EP111993 16.5000 -103.900 HU 70 980 1 6 304
1993241N14264 1993 62 EP MM JOVA 1993-08-31 15:00:00 TS 16.7000 -104.185 main 193 183 P_____________ EP111993 16.7000 -104.185 HU 75 976 1 7 305
1993241N14264 1993 62 EP MM JOVA 1993-08-31 18:00:00 TS 16.9000 -104.500 80 973 hurdat_epa main 189 186 O_____________ hurdat_epa EP111993 16.9000 -104.500 HU 80 973 1 7 300
1993241N14264 1993 62 EP MM JOVA 1993-08-31 21:00:00 TS 17.0575 -104.843 main 192 192 P_____________ EP111993 17.0575 -104.843 HU 90 963 2 7 294
1993241N14264 1993 62 EP MM JOVA 1993-09-01 00:00:00 TS 17.2000 -105.200 100 954 hurdat_epa main 218 217 O_____________ hurdat_epa EP111993 17.2000 -105.200 HU 100 954 3 7 293
1993241N14264 1993 62 EP MM JOVA 1993-09-01 03:00:00 TS 17.3499 -105.550 main 228 217 P_____________ EP111993 17.3499 -105.550 HU 107 951 3 7 294
1993241N14264 1993 62 EP MM JOVA 1993-09-01 06:00:00 TS 17.5000 -105.900 115 948 hurdat_epa main 222 219 O_____________ hurdat_epa EP111993 17.5000 -105.900 HU 115 948 4 7 294
1993241N14264 1993 62 EP MM JOVA 1993-09-01 09:00:00 TS 17.6424 -106.243 main 232 230 P_____________ EP111993 17.6424 -106.243 HU 115 948 4 7 294
1993241N14264 1993 62 EP MM JOVA 1993-09-01 12:00:00 TS 17.8000 -106.600 115 948 hurdat_epa main 245 245 O_____________ hurdat_epa EP111993 17.8000 -106.600 HU 115 948 4 8 296
1993241N14264 1993 62 EP MM JOVA 1993-09-01 15:00:00 TS 17.9850 -106.993 main 261 260 P_____________ EP111993 17.9850 -106.993 HU 112 948 3 9 298
1993241N14264 1993 62 EP MM JOVA 1993-09-01 18:00:00 TS 18.2000 -107.400 110 949 hurdat_epa main 277 277 O_____________ hurdat_epa EP111993 18.2000 -107.400 HU 110 949 3 9 301
1993241N14264 1993 62 EP MM JOVA 1993-09-01 21:00:00 TS 18.4499 -107.800 main 300 294 P_____________ EP111993 18.4499 -107.800 HU 105 952 3 9 303
1993241N14264 1993 62 EP MM JOVA 1993-09-02 00:00:00 TS 18.7000 -108.200 100 955 hurdat_epa main 318 318 O_____________ hurdat_epa EP111993 18.7000 -108.200 HU 100 955 3 9 301
1993241N14264 1993 62 EP MM JOVA 1993-09-02 03:00:00 TS 18.9074 -108.593 main 346 346 P_____________ EP111993 18.9074 -108.593 HU 95 959 2 9 298
1993241N14264 1993 62 EP MM JOVA 1993-09-02 06:00:00 TS 19.1000 -109.000 90 964 hurdat_epa main 374 374 O_____________ hurdat_epa EP111993 19.1000 -109.000 HU 90 964 2 9 296
1993241N14264 1993 62 EP MM JOVA 1993-09-02 09:00:00 TS 19.2924 -109.435 main 404 380 P_____________ EP111993 19.2924 -109.435 HU 85 969 2 9 295
1993241N14264 1993 62 EP MM JOVA 1993-09-02 12:00:00 TS 19.5000 -109.900 80 975 hurdat_epa main 380 358 O_____________ hurdat_epa EP111993 19.5000 -109.900 HU 80 975 1 10 297
1993241N14264 1993 62 EP MM JOVA 1993-09-02 15:00:00 TS 19.7499 -110.392 main 360 334 P_____________ EP111993 19.7499 -110.392 HU 80 975 1 11 298
1993241N14264 1993 62 EP MM JOVA 1993-09-02 18:00:00 TS 20.0000 -110.900 80 975 hurdat_epa main 337 329 O_____________ hurdat_epa EP111993 20.0000 -110.900 HU 80 975 1 10 296
1993241N14264 1993 62 EP MM JOVA 1993-09-02 21:00:00 TS 20.2073 -111.393 main 334 329 P_____________ EP111993 20.2073 -111.393 HU 82 972 1 10 293
1993241N14264 1993 62 EP MM JOVA 1993-09-03 00:00:00 TS 20.4000 -111.900 85 970 hurdat_epa main 341 338 O_____________ hurdat_epa EP111993 20.4000 -111.900 HU 85 970 2 11 292
1993241N14264 1993 62 EP MM JOVA 1993-09-03 03:00:00 TS 20.5998 -112.435 main 357 357 P_____________ EP111993 20.5998 -112.435 HU 87 970 2 11 291
1993241N14264 1993 62 EP MM JOVA 1993-09-03 06:00:00 TS 20.8000 -113.000 90 970 hurdat_epa main 388 388 O_____________ hurdat_epa EP111993 20.8000 -113.000 HU 90 970 2 12 291
1993241N14264 1993 62 EP MM JOVA 1993-09-03 09:00:00 TS 21.0073 -113.585 main 427 427 P_____________ EP111993 21.0073 -113.585 HU 90 970 2 12 290
1993241N14264 1993 62 EP MM JOVA 1993-09-03 12:00:00 TS 21.2000 -114.200 90 970 hurdat_epa main 443 443 O_____________ hurdat_epa EP111993 21.2000 -114.200 HU 90 970 2 12 287
1993241N14264 1993 62 EP MM JOVA 1993-09-03 15:00:00 TS 21.3647 -114.835 main 460 460 P_____________ EP111993 21.3647 -114.835 HU 85 971 2 12 284
1993241N14264 1993 62 EP MM JOVA 1993-09-03 18:00:00 TS 21.5000 -115.500 80 972 hurdat_epa main 498 498 O_____________ hurdat_epa EP111993 21.5000 -115.500 HU 80 972 1 13 281
1993241N14264 1993 62 EP MM JOVA 1993-09-03 21:00:00 TS 21.6150 -116.208 main 542 542 P_____________ EP111993 21.6150 -116.208 HU 72 976 1 13 279
1993241N14264 1993 62 EP MM JOVA 1993-09-04 00:00:00 TS 21.7000 -116.900 65 981 hurdat_epa main 591 591 O_____________ hurdat_epa EP111993 21.7000 -116.900 HU 65 981 1 12 277
1993241N14264 1993 62 EP MM JOVA 1993-09-04 03:00:00 TS 21.7723 -117.537 main 636 636 P_____________ EP111993 21.7723 -117.537 HU 57 988 0 11 275
1993241N14264 1993 62 EP MM JOVA 1993-09-04 06:00:00 TS 21.8000 -118.100 50 995 hurdat_epa main 689 689 O_____________ hurdat_epa EP111993 21.8000 -118.100 TS 50 995 0 10 270
1993241N14264 1993 62 EP MM JOVA 1993-09-04 09:00:00 TS 21.7647 -118.580 main 734 734 P_____________ EP111993 21.7647 -118.580 TS 40 997 0 8 263
1993241N14264 1993 62 EP MM JOVA 1993-09-04 12:00:00 TS 21.7000 -119.000 30 1000 hurdat_epa main 770 770 O_____________ hurdat_epa EP111993 21.7000 -119.000 TD 30 1000 -1 8 262
1993241N14264 1993 62 EP MM JOVA 1993-09-04 15:00:00 TS 21.6499 -119.422 main 804 804 P_____________ EP111993 21.6499 -119.422 TD 30 1002 -1 8 262
1993241N14264 1993 62 EP MM JOVA 1993-09-04 18:00:00 TS 21.6000 -119.800 30 1004 hurdat_epa main 830 830 O_____________ hurdat_epa EP111993 21.6000 -119.800 TD 30 1004 -1 7 261
1993241N14264 1993 62 EP MM JOVA 1993-09-04 21:00:00 TS 21.5499 -120.115 main 859 859 P_____________ EP111993 21.5499 -120.115 TD 30 1005 -1 6 260
1993241N14264 1993 62 EP MM JOVA 1993-09-05 00:00:00 TS 21.5000 -120.400 30 1007 hurdat_epa main 879 879 O_____________ hurdat_epa EP111993 21.5000 -120.400 TD 30 1007 -1 6 259
1993241N14264 1993 62 EP MM JOVA 1993-09-05 03:00:00 TS 21.4425 -120.708 main 909 909 P_____________ EP111993 21.4425 -120.708 TD 30 1007 -1 6 260
1993241N14264 1993 62 EP MM JOVA 1993-09-05 06:00:00 TS 21.4000 -121.000 30 1008 hurdat_epa main 928 928 O_____________ hurdat_epa EP111993 21.4000 -121.000 TD 30 1008 -1 5 264
1993241N14264 1993 62 EP MM JOVA 1993-09-05 09:00:00 TS 21.3924 -121.250 main 942 942 P_____________ EP111993 21.3924 -121.250 TD 27 1008 -1 5 270
1993241N14264 1993 62 EP MM JOVA 1993-09-05 12:00:00 TS 21.4000 -121.500 25 1009 hurdat_epa main 962 962 O_____________ hurdat_epa EP111993 21.4000 -121.500 TD 25 1009 -1 5 271
1993241N14264 1993 62 EP MM JOVA 1993-09-05 15:00:00 TS 21.4013 -121.794 main 983 983 P_____________ EP111993 21.4000 -121.800 TD 25 1009 -1 6 270
1993241N14264 1993 62 EP MM JOVA 1993-09-05 18:00:00 TS 21.4000 -122.100 25 1009 hurdat_epa main 1004 1004 O_____________ hurdat_epa EP111993 21.4000 -122.100 TD 25 1009 -1 5 270
1993241N14264 1993 62 EP MM JOVA 1993-09-05 21:00:00 NR 21.4000 -122.363 main 1026 1026 P_____________ EP111993 21.4000 -122.363 TD 25 -1 5 270
1993241N14264 1993 62 EP MM JOVA 1993-09-06 00:00:00 NR 21.4000 -122.600 main 1041 O_____________ jtwc_ep EP111993 21.4000 -122.600 25 4 270

IBTrACS Databaseについて

本データベースは、米国NOAAが公開する1842年以降の世界の熱帯低気圧のベストトラックデータアーカイブInternational Best Track Archive for Climate Stewardship (IBTrACS)を、ウェブで閲覧しやすい形式に変換したものです。

最終更新日:2021-10-21